NVIDIA EBITDA Margin 2006-2021 | NVDA

Current and historical EBITDA (Earnings Before Interest, Taxes, Depreciation and Amortization) margin for NVIDIA (NVDA) over the last 10 years. The current EBITDA margin for NVIDIA as of January 31, 2021 is .
NVIDIA EBITDA Margin Historical Data
Date TTM Revenue TTM EBITDA EBITDA Margin
2021-01-31 $16.68B $5.63B 33.76%
2020-10-31 $14.78B $4.93B 33.37%
2020-07-31 $13.07B $4.25B 32.55%
2020-04-30 $11.78B $3.86B 32.78%
2020-01-31 $10.92B $3.23B 29.56%
2019-10-31 $10.02B $2.50B 24.99%
2019-07-31 $10.19B $2.61B 25.63%
2019-04-30 $10.73B $3.16B 29.48%
2019-01-31 $11.72B $4.07B 34.70%
2018-10-31 $12.42B $4.82B 38.81%
2018-07-31 $11.88B $4.64B 39.06%
2018-04-30 $10.98B $4.16B 37.87%
2018-01-31 $9.71B $3.41B 35.09%
2017-10-31 $8.98B $3.04B 33.89%
2017-07-31 $8.34B $2.79B 33.45%
2017-04-30 $7.54B $2.42B 32.14%
2017-01-31 $6.91B $2.12B 30.69%
2016-10-31 $6.14B $1.66B 27.11%
2016-07-31 $5.44B $1.27B 23.39%
2016-04-30 $5.16B $1.03B 20.02%
2016-01-31 $5.01B $0.97B 19.42%
2015-10-31 $4.86B $0.96B 19.81%
2015-07-31 $4.78B $0.94B 19.60%
2015-04-30 $4.73B $1.03B 21.80%
2015-01-31 $4.68B $1.01B 21.51%
2014-10-31 $4.58B $0.94B 20.55%
2014-07-31 $4.40B $0.87B 19.73%
2014-04-30 $4.28B $0.81B 18.93%
2014-01-31 $4.13B $0.74B 17.92%
2013-10-31 $4.09B $0.76B 18.47%
2013-07-31 $4.24B $0.86B 20.29%
2013-04-30 $4.31B $0.89B 20.65%
2013-01-31 $4.28B $0.87B 20.42%
2012-10-31 $4.13B $0.81B 19.53%
2012-07-31 $3.99B $0.75B 18.71%
2012-04-30 $3.96B $0.78B 19.59%
2012-01-31 $4.00B $0.85B 21.31%
2011-10-31 $3.93B $0.90B 23.00%
2011-07-31 $3.71B $0.81B 21.73%
2011-04-30 $3.50B $0.45B 12.87%
2011-01-31 $3.54B $0.44B 12.50%
2010-10-31 $3.64B $0.40B 10.96%
2010-07-31 $3.70B $0.41B 10.95%
2010-04-30 $3.66B $0.47B 12.91%
2010-01-31 $3.33B $0.10B 2.95%
2009-10-31 $2.83B $-0.21B -7.47%
2009-07-31 $2.82B $-0.26B -9.29%
2009-04-30 $2.94B $-0.31B -10.56%
2009-01-31 $3.43B $0.11B 3.33%
2008-10-31 $4.15B $0.54B 13.02%
2008-07-31 $4.37B $0.72B 16.38%
2008-04-30 $4.41B $1.04B 23.62%
2008-01-31 $4.10B $0.97B 23.67%
2007-10-31 $3.77B $0.84B 22.36%
2007-07-31 $3.48B $0.71B 20.29%
2007-04-30 $3.23B $0.61B 18.84%
2007-01-31 $3.07B $0.56B 18.31%
2006-10-31 $2.83B $0.53B 18.62%
2006-07-31 $2.59B $0.48B 18.44%
2006-04-30 $2.47B $0.46B 18.55%
2006-01-31 $2.38B $0.43B 18.27%
2005-10-31 $2.31B $0.37B 15.90%
Sector Industry Market Cap Revenue
Computer and Technology Semiconductor - General $396.147B $16.675B
NVIDIA Corporation is the worldwide leader in graphics processors and media communications devices. The NVIDIA? Tesla? accelerated computing platform gives modern data centers the power to accelerate both artificial intelligence and high-performance computing workloads. NVIDIA? DGX? Systems are built on the new, revolutionary NVIDIA Volta? GPU platform. Powered by NVIDIA? Tesla? GPUs and NVIDIA NVLink?, the HGX reference architecture standardizes the design of data centers accelerating AI in the cloud-from autonomous driving and personalized healthcare to superhuman voice recognition. NVIDIA GPU Cloud (NGC) is a GPU-accelerated platform that runs everywhere. Data scientists and researchers can now rapidly build, train, and deploy neural network models to address some of the most complicated AI challenges. Their researchers operate as a think tank, accelerating advances in product technologies, including AI innovations like facial animations and light transport.
Stock Name Country Market Cap PE Ratio
Intel (INTC) United States $263.684B 12.19
Texas Instruments (TXN) United States $176.621B 32.15
STMicroelectronics (STM) Switzerland $35.520B 32.22
SUMCO CORP ADR (SUOPY) Japan $7.316B 30.83
Thk (THKLY) Japan $4.814B 0.00
Amtech Systems (ASYS) United States $0.156B 0.00